createdAt,value
2019-05-23T09:29:47.769Z,19.01
2019-05-23T09:34:49.847Z,18.08
2019-05-23T09:39:52.037Z,17.70
2019-05-23T09:44:54.217Z,17.58
2019-05-23T09:49:56.489Z,17.51
2019-05-23T09:54:58.518Z,17.27
2019-05-23T10:00:00.549Z,17.25
2019-05-23T10:05:07.379Z,17.45
2019-05-23T10:10:10.909Z,17.51
2019-05-23T10:15:25.820Z,17.57
2019-05-23T10:20:30.977Z,17.55
2019-05-23T10:25:33.924Z,17.57
2019-05-23T10:30:37.104Z,17.58
2019-05-23T10:35:39.302Z,17.58
2019-05-23T10:40:41.844Z,17.51
2019-05-23T10:45:44.292Z,17.48
2019-05-23T10:50:46.829Z,17.49
2019-05-23T10:55:48.893Z,17.62
2019-05-23T11:00:51.932Z,17.69
2019-05-23T11:05:54.150Z,17.79
2019-05-23T11:10:56.501Z,17.80
2019-05-23T11:15:58.450Z,17.81
2019-05-23T11:21:00.394Z,17.87
2019-05-23T11:26:03.512Z,17.93
2019-05-23T11:31:07.914Z,17.96
2019-05-23T11:36:10.614Z,17.83
2019-05-23T11:41:12.620Z,17.98
2019-05-23T11:46:26.675Z,18.14
2019-05-23T11:51:29.005Z,18.25
2019-05-23T11:56:31.871Z,18.35
2019-05-23T12:01:49.206Z,18.40
2019-05-23T12:07:05.510Z,18.43
2019-05-23T12:12:07.699Z,18.47
2019-05-23T12:17:10.873Z,18.58
2019-05-23T12:22:13.972Z,18.68
2019-05-23T12:27:16.219Z,18.79
2019-05-23T12:32:18.835Z,19.10
2019-05-23T12:37:22.462Z,19.27
2019-05-23T12:42:24.506Z,19.31
2019-05-23T12:47:45.976Z,19.17
2019-05-23T12:52:48.236Z,19.42
2019-05-23T12:57:50.501Z,19.52
2019-05-23T13:02:53.471Z,19.37
2019-05-23T13:07:55.781Z,19.67
2019-05-23T13:12:57.890Z,19.78
2019-05-23T13:18:00.319Z,19.89
2019-05-23T13:23:02.501Z,20.02
2019-05-23T13:28:04.775Z,20.12
2019-05-23T13:33:06.914Z,20.18
2019-05-23T13:38:09.117Z,20.38
